sensor_id;sensor_type;location;lat;lon;timestamp;P1;durP1;ratioP1;P2;durP2;ratioP2
22955;SDS011;40888;48.148;11.526;2023-04-24T00:01:47;3.10;;;2.07;;
22955;SDS011;40888;48.148;11.526;2023-04-24T00:04:13;3.57;;;2.10;;
22955;SDS011;40888;48.148;11.526;2023-04-24T00:06:41;1.43;;;1.33;;
22955;SDS011;40888;48.148;11.526;2023-04-24T00:09:08;2.30;;;1.40;;
22955;SDS011;40888;48.148;11.526;2023-04-24T00:11:35;1.60;;;1.50;;
22955;SDS011;40888;48.148;11.526;2023-04-24T00:14:01;1.23;;;1.13;;
22955;SDS011;40888;48.148;11.526;2023-04-24T00:16:27;2.23;;;1.50;;
22955;SDS011;40888;48.148;11.526;2023-04-24T00:18:53;2.23;;;1.40;;
22955;SDS011;40888;48.148;11.526;2023-04-24T00:21:19;1.70;;;1.60;;
22955;SDS011;40888;48.148;11.526;2023-04-24T00:23:46;2.50;;;1.70;;
22955;SDS011;40888;48.148;11.526;2023-04-24T00:26:12;2.70;;;2.17;;
22955;SDS011;40888;48.148;11.526;2023-04-24T00:28:38;1.73;;;1.53;;
22955;SDS011;40888;48.148;11.526;2023-04-24T00:31:04;1.80;;;1.70;;
22955;SDS011;40888;48.148;11.526;2023-04-24T00:33:30;2.43;;;2.23;;
22955;SDS011;40888;48.148;11.526;2023-04-24T00:35:56;1.60;;;1.50;;
22955;SDS011;40888;48.148;11.526;2023-04-24T00:38:21;1.63;;;1.30;;
22955;SDS011;40888;48.148;11.526;2023-04-24T00:40:47;1.83;;;1.33;;
22955;SDS011;40888;48.148;11.526;2023-04-24T00:43:15;1.20;;;1.10;;
22955;SDS011;40888;48.148;11.526;2023-04-24T00:45:41;1.20;;;1.10;;
22955;SDS011;40888;48.148;11.526;2023-04-24T00:48:07;2.20;;;1.00;;
22955;SDS011;40888;48.148;11.526;2023-04-24T00:50:33;1.50;;;1.40;;
22955;SDS011;40888;48.148;11.526;2023-04-24T00:53:00;2.03;;;1.30;;
22955;SDS011;40888;48.148;11.526;2023-04-24T00:55:26;1.20;;;1.10;;
22955;SDS011;40888;48.148;11.526;2023-04-24T00:57:52;1.40;;;1.30;;
22955;SDS011;40888;48.148;11.526;2023-04-24T01:00:18;1.70;;;1.60;;
22955;SDS011;40888;48.148;11.526;2023-04-24T01:02:44;2.10;;;1.20;;
22955;SDS011;40888;48.148;11.526;2023-04-24T01:05:11;2.97;;;1.63;;
22955;SDS011;40888;48.148;11.526;2023-04-24T01:07:38;3.33;;;1.73;;
22955;SDS011;40888;48.148;11.526;2023-04-24T01:10:06;1.53;;;1.40;;
22955;SDS011;40888;48.148;11.526;2023-04-24T01:12:33;1.47;;;1.37;;
22955;SDS011;40888;48.148;11.526;2023-04-24T01:14:59;1.83;;;1.70;;
22955;SDS011;40888;48.148;11.526;2023-04-24T01:17:26;2.13;;;1.40;;
22955;SDS011;40888;48.148;11.526;2023-04-24T01:19:51;1.27;;;1.17;;
22955;SDS011;40888;48.148;11.526;2023-04-24T01:22:21;0.73;;;0.73;;
22955;SDS011;40888;48.148;11.526;2023-04-24T01:24:47;1.40;;;1.00;;
22955;SDS011;40888;48.148;11.526;2023-04-24T01:27:13;1.57;;;1.20;;
22955;SDS011;40888;48.148;11.526;2023-04-24T01:29:39;0.90;;;0.90;;
22955;SDS011;40888;48.148;11.526;2023-04-24T01:32:05;1.20;;;1.00;;
22955;SDS011;40888;48.148;11.526;2023-04-24T01:34:31;0.70;;;0.70;;
22955;SDS011;40888;48.148;11.526;2023-04-24T01:36:57;2.53;;;1.03;;
22955;SDS011;40888;48.148;11.526;2023-04-24T01:39:23;0.80;;;0.80;;
22955;SDS011;40888;48.148;11.526;2023-04-24T01:41:53;2.57;;;0.70;;
22955;SDS011;40888;48.148;11.526;2023-04-24T01:44:20;1.53;;;1.00;;
22955;SDS011;40888;48.148;11.526;2023-04-24T01:46:46;1.03;;;0.80;;
22955;SDS011;40888;48.148;11.526;2023-04-24T01:49:12;0.80;;;0.80;;
22955;SDS011;40888;48.148;11.526;2023-04-24T01:51:38;0.70;;;0.70;;
22955;SDS011;40888;48.148;11.526;2023-04-24T01:54:04;1.27;;;1.00;;
22955;SDS011;40888;48.148;11.526;2023-04-24T01:56:31;1.17;;;0.90;;
22955;SDS011;40888;48.148;11.526;2023-04-24T01:58:58;0.50;;;0.50;;
22955;SDS011;40888;48.148;11.526;2023-04-24T02:01:26;1.10;;;1.00;;
22955;SDS011;40888;48.148;11.526;2023-04-24T02:03:52;1.07;;;0.97;;
22955;SDS011;40888;48.148;11.526;2023-04-24T02:06:17;2.30;;;1.50;;
22955;SDS011;40888;48.148;11.526;2023-04-24T02:08:43;0.80;;;0.80;;
22955;SDS011;40888;48.148;11.526;2023-04-24T02:11:09;1.33;;;1.10;;
22955;SDS011;40888;48.148;11.526;2023-04-24T02:13:35;1.60;;;0.80;;
22955;SDS011;40888;48.148;11.526;2023-04-24T02:16:01;1.13;;;0.80;;
22955;SDS011;40888;48.148;11.526;2023-04-24T02:18:26;0.93;;;0.77;;
22955;SDS011;40888;48.148;11.526;2023-04-24T02:20:52;0.70;;;0.70;;
22955;SDS011;40888;48.148;11.526;2023-04-24T02:23:18;0.80;;;0.60;;
22955;SDS011;40888;48.148;11.526;2023-04-24T02:25:44;0.67;;;0.63;;
22955;SDS011;40888;48.148;11.526;2023-04-24T02:28:10;1.30;;;0.90;;
22955;SDS011;40888;48.148;11.526;2023-04-24T02:30:36;2.87;;;0.90;;
22955;SDS011;40888;48.148;11.526;2023-04-24T02:33:02;2.00;;;1.20;;
22955;SDS011;40888;48.148;11.526;2023-04-24T02:35:28;1.53;;;0.70;;
22955;SDS011;40888;48.148;11.526;2023-04-24T02:37:54;1.83;;;0.80;;
22955;SDS011;40888;48.148;11.526;2023-04-24T02:40:20;2.03;;;1.13;;
22955;SDS011;40888;48.148;11.526;2023-04-24T02:42:46;0.70;;;0.70;;
22955;SDS011;40888;48.148;11.526;2023-04-24T02:45:11;1.13;;;1.10;;
22955;SDS011;40888;48.148;11.526;2023-04-24T02:47:37;0.80;;;0.80;;
22955;SDS011;40888;48.148;11.526;2023-04-24T02:50:03;1.07;;;0.90;;
22955;SDS011;40888;48.148;11.526;2023-04-24T02:52:29;1.10;;;1.10;;
22955;SDS011;40888;48.148;11.526;2023-04-24T02:54:55;0.90;;;0.87;;
22955;SDS011;40888;48.148;11.526;2023-04-24T02:57:21;0.60;;;0.60;;
22955;SDS011;40888;48.148;11.526;2023-04-24T02:59:46;0.70;;;0.70;;
22955;SDS011;40888;48.148;11.526;2023-04-24T03:02:12;0.90;;;0.90;;
22955;SDS011;40888;48.148;11.526;2023-04-24T03:04:38;2.80;;;1.00;;
22955;SDS011;40888;48.148;11.526;2023-04-24T03:07:05;1.97;;;0.67;;
22955;SDS011;40888;48.148;11.526;2023-04-24T03:09:31;0.90;;;0.80;;
22955;SDS011;40888;48.148;11.526;2023-04-24T03:11:56;1.03;;;0.93;;
22955;SDS011;40888;48.148;11.526;2023-04-24T03:14:23;1.90;;;0.93;;
22955;SDS011;40888;48.148;11.526;2023-04-24T03:16:49;2.13;;;1.37;;
22955;SDS011;40888;48.148;11.526;2023-04-24T03:19:15;1.07;;;1.00;;
22955;SDS011;40888;48.148;11.526;2023-04-24T03:21:41;1.00;;;1.00;;
22955;SDS011;40888;48.148;11.526;2023-04-24T03:24:07;2.37;;;1.30;;
22955;SDS011;40888;48.148;11.526;2023-04-24T03:26:34;3.73;;;1.07;;
22955;SDS011;40888;48.148;11.526;2023-04-24T03:29:00;1.23;;;0.80;;
22955;SDS011;40888;48.148;11.526;2023-04-24T03:31:26;1.30;;;0.80;;
22955;SDS011;40888;48.148;11.526;2023-04-24T03:33:52;2.57;;;1.20;;
22955;SDS011;40888;48.148;11.526;2023-04-24T03:36:17;1.10;;;1.10;;
22955;SDS011;40888;48.148;11.526;2023-04-24T03:38:44;2.80;;;1.20;;
22955;SDS011;40888;48.148;11.526;2023-04-24T03:41:10;1.43;;;1.30;;
22955;SDS011;40888;48.148;11.526;2023-04-24T03:43:36;1.60;;;1.50;;
22955;SDS011;40888;48.148;11.526;2023-04-24T03:46:03;4.67;;;1.77;;
22955;SDS011;40888;48.148;11.526;2023-04-24T03:48:29;2.63;;;1.43;;
22955;SDS011;40888;48.148;11.526;2023-04-24T03:50:55;1.50;;;1.17;;
22955;SDS011;40888;48.148;11.526;2023-04-24T03:53:20;1.67;;;1.57;;
22955;SDS011;40888;48.148;11.526;2023-04-24T03:55:46;2.37;;;1.83;;
22955;SDS011;40888;48.148;11.526;2023-04-24T03:58:12;1.50;;;1.40;;
22955;SDS011;40888;48.148;11.526;2023-04-24T04:00:41;1.77;;;1.13;;
22955;SDS011;40888;48.148;11.526;2023-04-24T04:03:07;1.40;;;1.30;;
22955;SDS011;40888;48.148;11.526;2023-04-24T04:05:32;1.87;;;1.30;;
22955;SDS011;40888;48.148;11.526;2023-04-24T04:07:58;1.67;;;1.57;;
22955;SDS011;40888;48.148;11.526;2023-04-24T04:10:24;1.67;;;1.27;;
22955;SDS011;40888;48.148;11.526;2023-04-24T04:12:49;1.10;;;1.03;;
22955;SDS011;40888;48.148;11.526;2023-04-24T04:15:15;4.10;;;1.50;;
22955;SDS011;40888;48.148;11.526;2023-04-24T04:17:41;1.40;;;1.23;;
22955;SDS011;40888;48.148;11.526;2023-04-24T04:20:07;1.67;;;1.50;;
22955;SDS011;40888;48.148;11.526;2023-04-24T04:22:35;1.33;;;1.10;;
22955;SDS011;40888;48.148;11.526;2023-04-24T04:25:02;1.83;;;1.23;;
22955;SDS011;40888;48.148;11.526;2023-04-24T04:27:28;1.00;;;1.00;;
22955;SDS011;40888;48.148;11.526;2023-04-24T04:30:00;2.03;;;1.00;;
22955;SDS011;40888;48.148;11.526;2023-04-24T04:32:32;1.37;;;1.00;;
22955;SDS011;40888;48.148;11.526;2023-04-24T04:34:59;1.57;;;0.83;;
22955;SDS011;40888;48.148;11.526;2023-04-24T04:37:28;1.10;;;1.10;;
22955;SDS011;40888;48.148;11.526;2023-04-24T04:39:55;1.20;;;1.10;;
22955;SDS011;40888;48.148;11.526;2023-04-24T04:42:20;1.27;;;0.87;;
22955;SDS011;40888;48.148;11.526;2023-04-24T04:44:46;0.80;;;0.80;;
22955;SDS011;40888;48.148;11.526;2023-04-24T04:47:12;1.43;;;0.90;;
22955;SDS011;40888;48.148;11.526;2023-04-24T04:49:39;0.70;;;0.53;;
22955;SDS011;40888;48.148;11.526;2023-04-24T04:52:06;2.00;;;1.37;;
22955;SDS011;40888;48.148;11.526;2023-04-24T04:54:32;0.90;;;0.90;;
22955;SDS011;40888;48.148;11.526;2023-04-24T04:56:57;1.30;;;1.20;;
22955;SDS011;40888;48.148;11.526;2023-04-24T04:59:23;1.30;;;0.73;;
22955;SDS011;40888;48.148;11.526;2023-04-24T05:01:49;1.20;;;1.10;;
22955;SDS011;40888;48.148;11.526;2023-04-24T05:04:15;1.63;;;1.10;;
22955;SDS011;40888;48.148;11.526;2023-04-24T05:06:41;1.47;;;1.33;;
22955;SDS011;40888;48.148;11.526;2023-04-24T05:09:06;0.93;;;0.87;;
22955;SDS011;40888;48.148;11.526;2023-04-24T05:11:32;1.77;;;1.10;;
22955;SDS011;40888;48.148;11.526;2023-04-24T05:13:58;1.80;;;0.80;;
22955;SDS011;40888;48.148;11.526;2023-04-24T05:16:24;2.93;;;1.13;;
22955;SDS011;40888;48.148;11.526;2023-04-24T05:18:50;1.13;;;1.03;;
22955;SDS011;40888;48.148;11.526;2023-04-24T05:21:16;1.20;;;0.80;;
22955;SDS011;40888;48.148;11.526;2023-04-24T05:23:41;1.73;;;0.80;;
22955;SDS011;40888;48.148;11.526;2023-04-24T05:26:07;0.63;;;0.63;;
22955;SDS011;40888;48.148;11.526;2023-04-24T05:28:33;3.33;;;0.90;;
22955;SDS011;40888;48.148;11.526;2023-04-24T05:30:59;2.00;;;0.53;;
22955;SDS011;40888;48.148;11.526;2023-04-24T05:33:24;1.90;;;0.80;;
22955;SDS011;40888;48.148;11.526;2023-04-24T05:35:50;0.70;;;0.70;;
22955;SDS011;40888;48.148;11.526;2023-04-24T05:38:16;1.67;;;0.40;;
22955;SDS011;40888;48.148;11.526;2023-04-24T05:40:44;1.73;;;0.57;;
22955;SDS011;40888;48.148;11.526;2023-04-24T05:43:11;0.60;;;0.60;;
22955;SDS011;40888;48.148;11.526;2023-04-24T05:45:37;2.17;;;0.70;;
22955;SDS011;40888;48.148;11.526;2023-04-24T05:48:03;0.90;;;0.60;;
22955;SDS011;40888;48.148;11.526;2023-04-24T05:50:29;1.23;;;0.70;;
22955;SDS011;40888;48.148;11.526;2023-04-24T05:52:55;0.83;;;0.70;;
22955;SDS011;40888;48.148;11.526;2023-04-24T05:55:23;0.47;;;0.47;;
22955;SDS011;40888;48.148;11.526;2023-04-24T05:57:50;1.30;;;0.50;;
22955;SDS011;40888;48.148;11.526;2023-04-24T06:00:16;0.73;;;0.73;;
22955;SDS011;40888;48.148;11.526;2023-04-24T06:02:44;0.90;;;0.60;;
22955;SDS011;40888;48.148;11.526;2023-04-24T06:05:11;1.37;;;0.63;;
22955;SDS011;40888;48.148;11.526;2023-04-24T06:07:37;0.40;;;0.40;;
22955;SDS011;40888;48.148;11.526;2023-04-24T06:10:02;0.90;;;0.60;;
22955;SDS011;40888;48.148;11.526;2023-04-24T06:12:28;0.83;;;0.43;;
22955;SDS011;40888;48.148;11.526;2023-04-24T06:14:54;0.43;;;0.30;;
22955;SDS011;40888;48.148;11.526;2023-04-24T06:17:23;0.50;;;0.50;;
22955;SDS011;40888;48.148;11.526;2023-04-24T06:19:48;0.70;;;0.53;;
22955;SDS011;40888;48.148;11.526;2023-04-24T06:22:14;0.43;;;0.40;;
22955;SDS011;40888;48.148;11.526;2023-04-24T06:24:40;1.43;;;0.40;;
22955;SDS011;40888;48.148;11.526;2023-04-24T06:27:06;0.53;;;0.40;;
22955;SDS011;40888;48.148;11.526;2023-04-24T06:29:32;0.53;;;0.53;;
22955;SDS011;40888;48.148;11.526;2023-04-24T06:31:59;0.40;;;0.40;;
22955;SDS011;40888;48.148;11.526;2023-04-24T06:34:24;0.63;;;0.60;;
22955;SDS011;40888;48.148;11.526;2023-04-24T06:37:00;0.50;;;0.50;;
22955;SDS011;40888;48.148;11.526;2023-04-24T06:39:26;0.93;;;0.60;;
22955;SDS011;40888;48.148;11.526;2023-04-24T06:41:51;0.20;;;0.20;;
22955;SDS011;40888;48.148;11.526;2023-04-24T06:44:17;0.47;;;0.47;;
22955;SDS011;40888;48.148;11.526;2023-04-24T06:46:43;0.70;;;0.50;;
22955;SDS011;40888;48.148;11.526;2023-04-24T06:49:09;0.83;;;0.40;;
22955;SDS011;40888;48.148;11.526;2023-04-24T06:51:34;0.50;;;0.50;;
22955;SDS011;40888;48.148;11.526;2023-04-24T06:54:00;0.20;;;0.20;;
22955;SDS011;40888;48.148;11.526;2023-04-24T06:56:26;0.20;;;0.20;;
22955;SDS011;40888;48.148;11.526;2023-04-24T06:58:54;0.40;;;0.40;;
22955;SDS011;40888;48.148;11.526;2023-04-24T07:01:20;0.33;;;0.33;;
22955;SDS011;40888;48.148;11.526;2023-04-24T07:03:49;0.40;;;0.40;;
22955;SDS011;40888;48.148;11.526;2023-04-24T07:06:14;0.87;;;0.27;;
22955;SDS011;40888;48.148;11.526;2023-04-24T07:08:43;0.97;;;0.53;;
22955;SDS011;40888;48.148;11.526;2023-04-24T07:11:09;0.40;;;0.40;;
22955;SDS011;40888;48.148;11.526;2023-04-24T07:13:35;0.40;;;0.40;;
22955;SDS011;40888;48.148;11.526;2023-04-24T07:16:00;0.87;;;0.40;;
22955;SDS011;40888;48.148;11.526;2023-04-24T07:18:26;0.63;;;0.40;;
22955;SDS011;40888;48.148;11.526;2023-04-24T07:20:52;0.67;;;0.40;;
22955;SDS011;40888;48.148;11.526;2023-04-24T07:23:17;0.27;;;0.27;;
22955;SDS011;40888;48.148;11.526;2023-04-24T07:25:44;2.03;;;0.50;;
22955;SDS011;40888;48.148;11.526;2023-04-24T07:28:10;0.97;;;0.43;;
22955;SDS011;40888;48.148;11.526;2023-04-24T07:30:36;1.27;;;0.60;;
22955;SDS011;40888;48.148;11.526;2023-04-24T07:33:01;0.80;;;0.40;;
22955;SDS011;40888;48.148;11.526;2023-04-24T07:35:27;0.83;;;0.50;;
22955;SDS011;40888;48.148;11.526;2023-04-24T07:37:53;4.17;;;0.93;;
22955;SDS011;40888;48.148;11.526;2023-04-24T07:40:19;0.40;;;0.40;;
22955;SDS011;40888;48.148;11.526;2023-04-24T07:42:45;0.20;;;0.20;;
22955;SDS011;40888;48.148;11.526;2023-04-24T07:45:13;0.50;;;0.50;;
22955;SDS011;40888;48.148;11.526;2023-04-24T07:47:43;0.47;;;0.30;;
22955;SDS011;40888;48.148;11.526;2023-04-24T07:50:10;0.60;;;0.40;;
22955;SDS011;40888;48.148;11.526;2023-04-24T07:52:37;0.30;;;0.30;;
22955;SDS011;40888;48.148;11.526;2023-04-24T07:55:03;0.30;;;0.30;;
22955;SDS011;40888;48.148;11.526;2023-04-24T07:57:29;1.37;;;0.30;;
22955;SDS011;40888;48.148;11.526;2023-04-24T07:59:55;0.40;;;0.20;;
22955;SDS011;40888;48.148;11.526;2023-04-24T08:02:21;0.70;;;0.70;;
22955;SDS011;40888;48.148;11.526;2023-04-24T08:04:51;1.30;;;0.30;;
22955;SDS011;40888;48.148;11.526;2023-04-24T08:07:19;1.53;;;0.30;;
22955;SDS011;40888;48.148;11.526;2023-04-24T08:09:45;0.80;;;0.50;;
22955;SDS011;40888;48.148;11.526;2023-04-24T08:12:10;0.47;;;0.40;;
22955;SDS011;40888;48.148;11.526;2023-04-24T08:14:36;1.53;;;0.40;;
22955;SDS011;40888;48.148;11.526;2023-04-24T08:17:02;0.83;;;0.53;;
22955;SDS011;40888;48.148;11.526;2023-04-24T08:19:28;0.50;;;0.50;;
22955;SDS011;40888;48.148;11.526;2023-04-24T08:21:54;1.23;;;0.60;;
22955;SDS011;40888;48.148;11.526;2023-04-24T08:24:20;1.17;;;0.30;;
22955;SDS011;40888;48.148;11.526;2023-04-24T08:26:46;0.40;;;0.40;;
22955;SDS011;40888;48.148;11.526;2023-04-24T08:29:15;0.20;;;0.20;;
22955;SDS011;40888;48.148;11.526;2023-04-24T08:31:41;0.67;;;0.50;;
22955;SDS011;40888;48.148;11.526;2023-04-24T08:34:07;0.70;;;0.70;;
22955;SDS011;40888;48.148;11.526;2023-04-24T08:36:32;1.13;;;0.80;;
22955;SDS011;40888;48.148;11.526;2023-04-24T08:38:58;0.97;;;0.77;;
22955;SDS011;40888;48.148;11.526;2023-04-24T08:41:26;0.93;;;0.93;;
22955;SDS011;40888;48.148;11.526;2023-04-24T08:43:52;1.70;;;1.10;;
22955;SDS011;40888;48.148;11.526;2023-04-24T08:46:20;1.70;;;1.10;;
22955;SDS011;40888;48.148;11.526;2023-04-24T08:48:46;1.57;;;1.00;;
22955;SDS011;40888;48.148;11.526;2023-04-24T08:51:14;1.33;;;1.23;;
22955;SDS011;40888;48.148;11.526;2023-04-24T08:53:40;1.20;;;1.10;;
22955;SDS011;40888;48.148;11.526;2023-04-24T08:56:06;1.20;;;1.03;;
22955;SDS011;40888;48.148;11.526;2023-04-24T08:58:32;0.80;;;0.80;;
22955;SDS011;40888;48.148;11.526;2023-04-24T09:00:58;1.37;;;1.27;;
22955;SDS011;40888;48.148;11.526;2023-04-24T09:03:27;1.03;;;1.03;;
22955;SDS011;40888;48.148;11.526;2023-04-24T09:05:53;1.30;;;1.20;;
22955;SDS011;40888;48.148;11.526;2023-04-24T09:08:20;1.40;;;1.30;;
22955;SDS011;40888;48.148;11.526;2023-04-24T09:10:50;2.70;;;1.53;;
22955;SDS011;40888;48.148;11.526;2023-04-24T09:13:16;1.53;;;1.43;;
22955;SDS011;40888;48.148;11.526;2023-04-24T09:15:43;0.93;;;0.93;;
22955;SDS011;40888;48.148;11.526;2023-04-24T09:18:08;1.27;;;1.17;;
22955;SDS011;40888;48.148;11.526;2023-04-24T09:20:34;1.67;;;1.40;;
22955;SDS011;40888;48.148;11.526;2023-04-24T09:23:20;2.30;;;1.10;;
22955;SDS011;40888;48.148;11.526;2023-04-24T09:25:46;2.70;;;1.03;;
22955;SDS011;40888;48.148;11.526;2023-04-24T09:28:22;1.37;;;1.27;;
22955;SDS011;40888;48.148;11.526;2023-04-24T09:33:39;1.93;;;1.27;;
22955;SDS011;40888;48.148;11.526;2023-04-24T09:36:08;1.40;;;1.20;;
22955;SDS011;40888;48.148;11.526;2023-04-24T09:38:35;2.70;;;1.23;;
22955;SDS011;40888;48.148;11.526;2023-04-24T09:41:03;1.60;;;1.40;;
22955;SDS011;40888;48.148;11.526;2023-04-24T09:43:31;4.93;;;1.43;;
22955;SDS011;40888;48.148;11.526;2023-04-24T09:45:57;1.70;;;1.60;;
22955;SDS011;40888;48.148;11.526;2023-04-24T09:48:33;2.73;;;1.37;;
22955;SDS011;40888;48.148;11.526;2023-04-24T09:51:01;2.97;;;1.60;;
22955;SDS011;40888;48.148;11.526;2023-04-24T09:53:28;1.63;;;1.40;;
22955;SDS011;40888;48.148;11.526;2023-04-24T09:55:55;2.00;;;1.60;;
22955;SDS011;40888;48.148;11.526;2023-04-24T09:58:24;2.27;;;1.57;;
22955;SDS011;40888;48.148;11.526;2023-04-24T10:00:55;2.40;;;1.50;;
22955;SDS011;40888;48.148;11.526;2023-04-24T10:03:25;2.30;;;1.40;;
22955;SDS011;40888;48.148;11.526;2023-04-24T10:05:59;1.53;;;1.33;;
22955;SDS011;40888;48.148;11.526;2023-04-24T10:08:26;1.73;;;1.17;;
22955;SDS011;40888;48.148;11.526;2023-04-24T10:10:57;1.27;;;1.20;;
22955;SDS011;40888;48.148;11.526;2023-04-24T10:13:24;1.70;;;1.60;;
22955;SDS011;40888;48.148;11.526;2023-04-24T10:15:51;2.13;;;1.30;;
22955;SDS011;40888;48.148;11.526;2023-04-24T10:18:17;1.50;;;1.40;;
22955;SDS011;40888;48.148;11.526;2023-04-24T10:20:43;1.80;;;1.70;;
22955;SDS011;40888;48.148;11.526;2023-04-24T10:23:10;1.13;;;1.03;;
22955;SDS011;40888;48.148;11.526;2023-04-24T10:25:37;1.27;;;1.23;;
22955;SDS011;40888;48.148;11.526;2023-04-24T10:28:03;1.33;;;1.30;;
22955;SDS011;40888;48.148;11.526;2023-04-24T10:30:34;1.67;;;1.03;;
22955;SDS011;40888;48.148;11.526;2023-04-24T10:33:04;1.73;;;1.63;;
22955;SDS011;40888;48.148;11.526;2023-04-24T10:35:32;1.93;;;1.40;;
22955;SDS011;40888;48.148;11.526;2023-04-24T10:38:02;3.53;;;1.50;;
22955;SDS011;40888;48.148;11.526;2023-04-24T10:40:35;1.53;;;1.43;;
22955;SDS011;40888;48.148;11.526;2023-04-24T10:43:02;1.53;;;1.43;;
22955;SDS011;40888;48.148;11.526;2023-04-24T10:45:31;1.50;;;1.40;;
22955;SDS011;40888;48.148;11.526;2023-04-24T10:50:27;1.20;;;1.10;;
22955;SDS011;40888;48.148;11.526;2023-04-24T10:53:05;3.87;;;1.63;;
22955;SDS011;40888;48.148;11.526;2023-04-24T10:55:39;1.50;;;1.40;;
22955;SDS011;40888;48.148;11.526;2023-04-24T10:58:15;2.70;;;1.20;;
22955;SDS011;40888;48.148;11.526;2023-04-24T11:00:42;1.83;;;1.60;;
22955;SDS011;40888;48.148;11.526;2023-04-24T11:05:59;1.20;;;1.13;;
22955;SDS011;40888;48.148;11.526;2023-04-24T11:08:28;4.07;;;1.47;;
22955;SDS011;40888;48.148;11.526;2023-04-24T11:11:11;1.57;;;1.30;;
22955;SDS011;40888;48.148;11.526;2023-04-24T11:24:24;1.30;;;1.17;;
22955;SDS011;40888;48.148;11.526;2023-04-24T11:26:54;1.50;;;1.40;;
22955;SDS011;40888;48.148;11.526;2023-04-24T11:29:22;1.70;;;1.60;;
22955;SDS011;40888;48.148;11.526;2023-04-24T11:31:48;1.50;;;1.40;;
22955;SDS011;40888;48.148;11.526;2023-04-24T11:34:16;1.60;;;1.50;;
22955;SDS011;40888;48.148;11.526;2023-04-24T11:36:43;1.83;;;1.60;;
22955;SDS011;40888;48.148;11.526;2023-04-24T11:39:13;1.83;;;1.50;;
22955;SDS011;40888;48.148;11.526;2023-04-24T11:41:39;1.47;;;1.37;;
22955;SDS011;40888;48.148;11.526;2023-04-24T11:44:07;2.20;;;1.40;;
22955;SDS011;40888;48.148;11.526;2023-04-24T11:46:34;1.30;;;1.20;;
22955;SDS011;40888;48.148;11.526;2023-04-24T11:49:02;2.10;;;1.20;;
22955;SDS011;40888;48.148;11.526;2023-04-24T11:51:28;1.30;;;1.20;;
22955;SDS011;40888;48.148;11.526;2023-04-24T11:53:55;1.30;;;1.20;;
22955;SDS011;40888;48.148;11.526;2023-04-24T11:56:22;0.97;;;0.97;;
22955;SDS011;40888;48.148;11.526;2023-04-24T11:58:51;1.30;;;1.20;;
22955;SDS011;40888;48.148;11.526;2023-04-24T12:01:18;2.20;;;1.30;;
22955;SDS011;40888;48.148;11.526;2023-04-24T12:03:47;1.00;;;1.00;;
22955;SDS011;40888;48.148;11.526;2023-04-24T12:06:14;0.93;;;0.90;;
22955;SDS011;40888;48.148;11.526;2023-04-24T12:08:40;1.30;;;1.20;;
22955;SDS011;40888;48.148;11.526;2023-04-24T12:11:06;1.40;;;1.30;;
22955;SDS011;40888;48.148;11.526;2023-04-24T12:13:33;1.13;;;1.13;;
22955;SDS011;40888;48.148;11.526;2023-04-24T12:16:01;3.23;;;1.23;;
22955;SDS011;40888;48.148;11.526;2023-04-24T12:18:28;1.40;;;1.30;;
22955;SDS011;40888;48.148;11.526;2023-04-24T12:20:55;0.90;;;0.90;;
22955;SDS011;40888;48.148;11.526;2023-04-24T12:23:39;1.80;;;1.10;;
22955;SDS011;40888;48.148;11.526;2023-04-24T12:26:08;1.70;;;1.10;;
22955;SDS011;40888;48.148;11.526;2023-04-24T12:28:35;1.33;;;1.00;;
22955;SDS011;40888;48.148;11.526;2023-04-24T12:31:01;1.13;;;1.10;;
22955;SDS011;40888;48.148;11.526;2023-04-24T12:33:27;1.63;;;1.30;;
22955;SDS011;40888;48.148;11.526;2023-04-24T12:35:57;1.27;;;1.17;;
22955;SDS011;40888;48.148;11.526;2023-04-24T12:38:23;2.00;;;1.03;;
22955;SDS011;40888;48.148;11.526;2023-04-24T12:41:12;1.33;;;1.07;;
22955;SDS011;40888;48.148;11.526;2023-04-24T12:43:38;2.07;;;1.00;;
22955;SDS011;40888;48.148;11.526;2023-04-24T12:46:04;1.47;;;1.30;;
22955;SDS011;40888;48.148;11.526;2023-04-24T12:48:30;1.27;;;1.00;;
22955;SDS011;40888;48.148;11.526;2023-04-24T12:50:57;1.70;;;1.10;;
22955;SDS011;40888;48.148;11.526;2023-04-24T12:53:26;1.00;;;0.90;;
22955;SDS011;40888;48.148;11.526;2023-04-24T12:55:54;1.10;;;1.00;;
22955;SDS011;40888;48.148;11.526;2023-04-24T12:58:20;1.17;;;1.03;;
22955;SDS011;40888;48.148;11.526;2023-04-24T13:00:47;1.03;;;1.00;;
22955;SDS011;40888;48.148;11.526;2023-04-24T13:03:13;1.33;;;1.23;;
22955;SDS011;40888;48.148;11.526;2023-04-24T13:05:39;2.63;;;1.03;;
22955;SDS011;40888;48.148;11.526;2023-04-24T13:08:05;1.10;;;1.10;;
22955;SDS011;40888;48.148;11.526;2023-04-24T13:10:31;1.20;;;1.10;;
22955;SDS011;40888;48.148;11.526;2023-04-24T13:12:57;2.40;;;1.20;;
22955;SDS011;40888;48.148;11.526;2023-04-24T13:15:22;1.33;;;1.13;;
22955;SDS011;40888;48.148;11.526;2023-04-24T13:17:49;1.33;;;1.23;;
22955;SDS011;40888;48.148;11.526;2023-04-24T13:20:17;1.83;;;1.30;;
22955;SDS011;40888;48.148;11.526;2023-04-24T13:22:43;1.77;;;1.40;;
22955;SDS011;40888;48.148;11.526;2023-04-24T13:25:09;1.83;;;1.60;;
22955;SDS011;40888;48.148;11.526;2023-04-24T13:27:35;3.67;;;1.40;;
22955;SDS011;40888;48.148;11.526;2023-04-24T13:30:03;1.70;;;1.60;;
22955;SDS011;40888;48.148;11.526;2023-04-24T13:32:29;3.37;;;1.20;;
22955;SDS011;40888;48.148;11.526;2023-04-24T13:34:56;1.30;;;1.20;;
22955;SDS011;40888;48.148;11.526;2023-04-24T13:37:22;1.63;;;1.53;;
22955;SDS011;40888;48.148;11.526;2023-04-24T13:39:47;1.50;;;1.40;;
22955;SDS011;40888;48.148;11.526;2023-04-24T13:42:13;3.37;;;1.40;;
22955;SDS011;40888;48.148;11.526;2023-04-24T13:44:39;1.60;;;1.40;;
22955;SDS011;40888;48.148;11.526;2023-04-24T13:47:05;4.00;;;1.40;;
22955;SDS011;40888;48.148;11.526;2023-04-24T13:49:31;2.50;;;1.20;;
22955;SDS011;40888;48.148;11.526;2023-04-24T13:51:57;1.57;;;1.10;;
22955;SDS011;40888;48.148;11.526;2023-04-24T13:54:23;1.17;;;1.10;;
22955;SDS011;40888;48.148;11.526;2023-04-24T13:56:51;1.43;;;1.30;;
22955;SDS011;40888;48.148;11.526;2023-04-24T13:59:17;1.07;;;1.00;;
22955;SDS011;40888;48.148;11.526;2023-04-24T14:01:43;4.17;;;1.40;;
22955;SDS011;40888;48.148;11.526;2023-04-24T14:04:10;1.30;;;1.20;;
22955;SDS011;40888;48.148;11.526;2023-04-24T14:06:36;2.03;;;1.23;;
22955;SDS011;40888;48.148;11.526;2023-04-24T14:09:02;1.77;;;1.40;;
22955;SDS011;40888;48.148;11.526;2023-04-24T14:11:27;1.77;;;1.13;;
22955;SDS011;40888;48.148;11.526;2023-04-24T14:13:54;1.53;;;1.43;;
22955;SDS011;40888;48.148;11.526;2023-04-24T14:16:21;1.57;;;1.30;;
22955;SDS011;40888;48.148;11.526;2023-04-24T14:18:47;1.50;;;1.40;;
22955;SDS011;40888;48.148;11.526;2023-04-24T14:21:13;2.03;;;1.43;;
22955;SDS011;40888;48.148;11.526;2023-04-24T14:23:38;2.60;;;1.10;;
22955;SDS011;40888;48.148;11.526;2023-04-24T14:26:04;1.50;;;1.40;;
22955;SDS011;40888;48.148;11.526;2023-04-24T14:28:30;1.60;;;1.50;;
22955;SDS011;40888;48.148;11.526;2023-04-24T14:30:56;3.53;;;1.23;;
22955;SDS011;40888;48.148;11.526;2023-04-24T14:33:21;1.40;;;1.30;;
22955;SDS011;40888;48.148;11.526;2023-04-24T14:35:47;1.43;;;1.17;;
22955;SDS011;40888;48.148;11.526;2023-04-24T14:38:13;1.33;;;1.23;;
22955;SDS011;40888;48.148;11.526;2023-04-24T14:40:40;1.50;;;1.40;;
22955;SDS011;40888;48.148;11.526;2023-04-24T14:43:06;2.40;;;1.60;;
22955;SDS011;40888;48.148;11.526;2023-04-24T14:45:32;1.50;;;1.40;;
22955;SDS011;40888;48.148;11.526;2023-04-24T14:47:57;2.07;;;1.30;;
22955;SDS011;40888;48.148;11.526;2023-04-24T14:50:23;2.10;;;1.30;;